Time;durP1;ratioP1;P1;durP2;ratioP2;P2;SDS_P1;SDS_P2;PMS_P1;PMS_P2;Temp;Humidity;BMP_temperature;BMP_pressure;BME280_temperature;BME280_humidity;BME280_pressure;Samples;Min_cycle;Max_cycle;Signal;HPM_P1;HPM_P2
2024/03/22 00:00:28;;;;;;;23.50;15.80;;;;;;;;;;4762862;30;20230;-86
2024/03/22 00:03:32;;;;;;;28.23;17.33;;;;;;;;;;4774195;30;20186;-86
2024/03/22 00:06:36;;;;;;;23.77;15.33;;;;;;;;;;4762462;30;20194;-86
2024/03/22 00:09:40;;;;;;;26.97;15.27;;;;;;;;;;4762591;30;20229;-86
2024/03/22 00:12:45;;;;;;;21.93;14.07;;;;;;;;;;4772997;30;20191;-86
2024/03/22 00:15:49;;;;;;;25.53;15.37;;;;;;;;;;4772661;30;20218;-86
2024/03/22 00:18:53;;;;;;;23.87;15.07;;;;;;;;;;4762232;30;20186;-86
2024/03/22 00:21:57;;;;;;;22.33;15.27;;;;;;;;;;4782728;30;20194;-86
2024/03/22 00:25:01;;;;;;;25.53;15.97;;;;;;;;;;4761917;30;20533;-85
2024/03/22 00:28:05;;;;;;;27.33;16.77;;;;;;;;;;4762030;30;20186;-86
2024/03/22 00:31:09;;;;;;;24.57;15.70;;;;;;;;;;4761568;30;20226;-85
2024/03/22 00:34:16;;;;;;;26.63;16.23;;;;;;;;;;4764232;30;20222;-86
2024/03/22 00:37:20;;;;;;;24.37;15.67;;;;;;;;;;4775267;30;20194;-86
2024/03/22 00:40:24;;;;;;;24.17;14.43;;;;;;;;;;4764625;30;20225;-86
2024/03/22 00:43:28;;;;;;;24.27;15.43;;;;;;;;;;4775658;30;20190;-86
2024/03/22 00:46:33;;;;;;;22.57;14.77;;;;;;;;;;4764880;30;20187;-86
2024/03/22 00:49:37;;;;;;;26.20;14.87;;;;;;;;;;4764731;30;20222;-86
2024/03/22 00:52:41;;;;;;;22.37;14.23;;;;;;;;;;4775813;30;20190;-86
2024/03/22 00:55:50;;;;;;;23.77;14.27;;;;;;;;;;4775513;30;20222;-86
2024/03/22 00:58:55;;;;;;;20.43;13.47;;;;;;;;;;4764788;30;20530;-86
2024/03/22 01:01:59;;;;;;;22.97;14.83;;;;;;;;;;4764515;30;20222;-86
2024/03/22 01:05:04;;;;;;;24.10;13.33;;;;;;;;;;4776451;30;20190;-86
2024/03/22 01:08:08;;;;;;;23.43;14.27;;;;;;;;;;4776219;30;20194;-86
2024/03/22 01:11:12;;;;;;;24.43;14.97;;;;;;;;;;4775451;30;20222;-87
2024/03/22 01:14:16;;;;;;;20.67;14.13;;;;;;;;;;4776450;30;20560;-86
2024/03/22 01:17:21;;;;;;;20.73;13.70;;;;;;;;;;4765980;30;20198;-85
2024/03/22 01:20:25;;;;;;;24.37;14.07;;;;;;;;;;4765689;30;20230;-84
2024/03/22 01:23:29;;;;;;;19.97;13.13;;;;;;;;;;4776213;30;20190;-84
2024/03/22 01:26:33;;;;;;;19.93;13.33;;;;;;;;;;4775771;30;20190;-84
2024/03/22 01:29:37;;;;;;;21.40;13.60;;;;;;;;;;4775659;30;20218;-84
2024/03/22 01:32:41;;;;;;;22.23;13.37;;;;;;;;;;4775149;30;20199;-84
2024/03/22 01:35:45;;;;;;;19.20;13.03;;;;;;;;;;4776119;30;20214;-84
2024/03/22 01:38:49;;;;;;;22.17;13.43;;;;;;;;;;4766038;30;20190;-85
2024/03/22 01:41:53;;;;;;;22.00;13.63;;;;;;;;;;4766140;30;20194;-84
2024/03/22 01:44:58;;;;;;;18.07;12.17;;;;;;;;;;4775680;30;20525;-84
2024/03/22 01:48:03;;;;;;;19.93;12.10;;;;;;;;;;4775294;30;20190;-84
2024/03/22 01:51:10;;;;;;;21.07;12.17;;;;;;;;;;4775361;30;20230;-84
2024/03/22 01:54:16;;;;;;;20.07;13.03;;;;;;;;;;4764801;30;20190;-85
2024/03/22 01:57:20;;;;;;;19.80;13.13;;;;;;;;;;4775714;30;20194;-85
2024/03/22 02:00:24;;;;;;;20.53;12.73;;;;;;;;;;4776339;30;20226;-85
2024/03/22 02:03:28;;;;;;;21.27;13.17;;;;;;;;;;4775455;30;20195;-84
2024/03/22 02:06:32;;;;;;;17.87;11.77;;;;;;;;;;4776631;30;20183;-85
2024/03/22 02:09:37;;;;;;;20.70;11.80;;;;;;;;;;4774921;30;20234;-84
2024/03/22 02:12:41;;;;;;;18.13;11.77;;;;;;;;;;4765063;30;20194;-84
2024/03/22 02:15:45;;;;;;;21.10;11.37;;;;;;;;;;4764803;30;20218;-84
2024/03/22 02:18:51;;;;;;;16.37;11.07;;;;;;;;;;4765043;30;20194;-85
2024/03/22 02:21:55;;;;;;;17.77;11.63;;;;;;;;;;4775219;30;20194;-84
2024/03/22 02:24:59;;;;;;;20.13;11.77;;;;;;;;;;4775076;30;20190;-84
2024/03/22 02:28:03;;;;;;;17.93;10.90;;;;;;;;;;4773749;30;20190;-84
2024/03/22 02:31:08;;;;;;;16.67;10.70;;;;;;;;;;4763358;30;20229;-84
2024/03/22 02:34:12;;;;;;;17.17;10.27;;;;;;;;;;4774045;30;20198;-84
2024/03/22 02:37:16;;;;;;;13.87;9.30;;;;;;;;;;4763947;30;20190;-84
2024/03/22 02:40:21;;;;;;;16.77;10.07;;;;;;;;;;4773695;30;20222;-85
2024/03/22 02:43:25;;;;;;;16.33;10.30;;;;;;;;;;4784145;30;20195;-84
2024/03/22 02:46:30;;;;;;;16.47;11.13;;;;;;;;;;4763690;30;20186;-83
2024/03/22 02:49:34;;;;;;;19.93;10.63;;;;;;;;;;4774055;30;20222;-84
2024/03/22 02:52:38;;;;;;;16.93;9.80;;;;;;;;;;4774346;30;20182;-84
2024/03/22 02:55:42;;;;;;;17.43;11.17;;;;;;;;;;4763295;30;20218;-83
2024/03/22 03:03:32;;;;;;;16.43;10.50;;;;;;;;;;4780115;30;20190;-84
2024/03/22 03:06:36;;;;;;;22.23;11.80;;;;;;;;;;4775047;30;20186;-85
2024/03/22 03:09:40;;;;;;;17.00;11.10;;;;;;;;;;4764561;30;20221;-84
2024/03/22 03:12:44;;;;;;;15.60;10.60;;;;;;;;;;4774442;30;20190;-84
2024/03/22 03:15:48;;;;;;;15.70;10.37;;;;;;;;;;4762983;30;20217;-84
2024/03/22 03:18:53;;;;;;;23.00;11.17;;;;;;;;;;4774278;30;20641;-84
2024/03/22 03:21:57;;;;;;;19.87;14.40;;;;;;;;;;4763485;30;20198;-84
2024/03/22 03:25:04;;;;;;;23.93;13.63;;;;;;;;;;4773745;30;20186;-84
2024/03/22 03:28:08;;;;;;;26.53;14.67;;;;;;;;;;4773310;30;20194;-83
2024/03/22 03:31:12;;;;;;;20.87;13.50;;;;;;;;;;4762655;30;20230;-85
2024/03/22 03:34:17;;;;;;;18.13;12.23;;;;;;;;;;4773180;30;20195;-84
2024/03/22 03:37:21;;;;;;;19.20;11.73;;;;;;;;;;4783805;30;20196;-84
2024/03/22 03:40:26;;;;;;;18.37;11.13;;;;;;;;;;4762986;30;20235;-84
2024/03/22 03:43:30;;;;;;;16.47;10.90;;;;;;;;;;4774311;30;20190;-84
2024/03/22 03:46:34;;;;;;;18.30;10.43;;;;;;;;;;4773463;30;20186;-85
2024/03/22 03:49:39;;;;;;;20.77;13.40;;;;;;;;;;4774266;30;20230;-86
2024/03/22 03:52:43;;;;;;;23.27;13.20;;;;;;;;;;4772437;30;20194;-85
2024/03/22 03:55:47;;;;;;;18.73;12.23;;;;;;;;;;4773227;30;20214;-84
2024/03/22 03:58:53;;;;;;;21.83;12.50;;;;;;;;;;4773289;30;20194;-84
2024/03/22 04:01:57;;;;;;;17.37;11.50;;;;;;;;;;4773596;30;20226;-84
2024/03/22 04:05:02;;;;;;;23.53;12.47;;;;;;;;;;4774117;30;20186;-84
2024/03/22 04:08:06;;;;;;;19.63;11.87;;;;;;;;;;4775088;30;20552;-84
2024/03/22 04:11:11;;;;;;;19.60;12.43;;;;;;;;;;4767343;30;20226;-84
2024/03/22 04:14:15;;;;;;;20.80;13.07;;;;;;;;;;4777843;30;20194;-84
2024/03/22 04:17:19;;;;;;;22.53;14.00;;;;;;;;;;4777137;30;20186;-85
2024/03/22 04:20:23;;;;;;;21.27;13.30;;;;;;;;;;4778577;30;20234;-84
2024/03/22 04:23:30;;;;;;;21.60;14.43;;;;;;;;;;4777350;30;20194;-83
2024/03/22 04:26:34;;;;;;;21.33;13.77;;;;;;;;;;4765874;30;20534;-84
2024/03/22 04:29:39;;;;;;;19.73;12.70;;;;;;;;;;4775347;30;20700;-83
2024/03/22 04:32:46;;;;;;;21.17;13.13;;;;;;;;;;4776217;30;20190;-84
2024/03/22 04:35:50;;;;;;;19.43;12.17;;;;;;;;;;4765999;30;20222;-84
2024/03/22 04:38:55;;;;;;;21.67;12.33;;;;;;;;;;4776386;30;20194;-84
2024/03/22 04:41:59;;;;;;;17.67;12.37;;;;;;;;;;4776327;30;20182;-84
2024/03/22 04:45:03;;;;;;;21.53;12.97;;;;;;;;;;4765959;30;20194;-85
2024/03/22 04:48:08;;;;;;;20.23;12.80;;;;;;;;;;4766483;30;20195;-84
2024/03/22 04:51:13;;;;;;;22.43;12.20;;;;;;;;;;4775895;30;20229;-84
2024/03/22 04:54:17;;;;;;;20.70;13.60;;;;;;;;;;4776321;30;20190;-84
2024/03/22 04:57:21;;;;;;;21.17;12.60;;;;;;;;;;4776098;30;20182;-84
2024/03/22 05:00:25;;;;;;;17.63;11.23;;;;;;;;;;4776107;30;20218;-84
2024/03/22 05:03:31;;;;;;;17.93;11.60;;;;;;;;;;4777149;30;20186;-85
2024/03/22 05:06:36;;;;;;;19.33;11.77;;;;;;;;;;4776605;30;20183;-84
2024/03/22 05:09:40;;;;;;;20.10;12.77;;;;;;;;;;4771853;30;20226;-84
2024/03/22 05:12:45;;;;;;;23.13;13.13;;;;;;;;;;4758926;30;20195;-83
2024/03/22 05:15:49;;;;;;;20.00;12.90;;;;;;;;;;4757607;30;20219;-84
2024/03/22 05:18:53;;;;;;;23.30;13.70;;;;;;;;;;4757239;30;20199;-84
2024/03/22 05:21:57;;;;;;;18.97;11.97;;;;;;;;;;4747436;30;20191;-84
2024/03/22 05:25:01;;;;;;;20.87;12.13;;;;;;;;;;4757693;30;20195;-85
2024/03/22 05:28:05;;;;;;;20.13;12.53;;;;;;;;;;4758193;30;20199;-84
2024/03/22 05:31:09;;;;;;;22.10;13.80;;;;;;;;;;4767494;30;20297;-83
2024/03/22 05:34:14;;;;;;;23.33;14.77;;;;;;;;;;4757691;30;20195;-83
2024/03/22 05:37:19;;;;;;;21.73;13.60;;;;;;;;;;4757646;30;20223;-84
2024/03/22 05:40:25;;;;;;;21.47;14.43;;;;;;;;;;4747323;30;20226;-86
2024/03/22 05:43:29;;;;;;;24.50;15.30;;;;;;;;;;4757846;30;20195;-84
2024/03/22 05:46:34;;;;;;;21.93;14.20;;;;;;;;;;4758472;30;20198;-84
2024/03/22 05:49:38;;;;;;;25.57;14.07;;;;;;;;;;4757583;30;20231;-84
2024/03/22 05:52:42;;;;;;;20.10;13.27;;;;;;;;;;4757325;30;20191;-84
2024/03/22 05:55:47;;;;;;;22.57;13.90;;;;;;;;;;4756628;30;20214;-84
2024/03/22 05:58:51;;;;;;;18.60;13.27;;;;;;;;;;4746455;30;20195;-85
2024/03/22 06:01:55;;;;;;;17.27;12.73;;;;;;;;;;4756300;30;20218;-84
2024/03/22 06:05:54;;;;;;;22.47;13.67;;;;;;;;;;4767137;30;20191;-86
2024/03/22 06:09:50;;;;;;;17.43;13.13;;;;;;;;;;4750543;30;20195;-86
2024/03/22 06:14:41;;;;;;;22.93;13.50;;;;;;;;;;4759222;30;20206;-84
2024/03/22 06:17:45;;;;;;;19.20;12.73;;;;;;;;;;4755747;30;20183;-85
2024/03/22 06:20:50;;;;;;;22.43;14.17;;;;;;;;;;4750663;30;20222;-83
2024/03/22 06:23:54;;;;;;;24.37;15.67;;;;;;;;;;4743222;30;20691;-84
2024/03/22 06:26:58;;;;;;;19.83;13.40;;;;;;;;;;4772050;30;20188;-85
2024/03/22 06:30:03;;;;;;;20.67;12.83;;;;;;;;;;4763685;30;20222;-83
2024/03/22 06:33:08;;;;;;;20.53;15.20;;;;;;;;;;4765384;30;20186;-83
2024/03/22 06:36:12;;;;;;;22.17;15.67;;;;;;;;;;4762744;30;20211;-82
2024/03/22 06:39:16;;;;;;;23.30;15.73;;;;;;;;;;4748292;30;20191;-85
2024/03/22 06:42:20;;;;;;;29.80;21.83;;;;;;;;;;4747278;30;20195;-84
2024/03/22 06:45:26;;;;;;;27.97;18.63;;;;;;;;;;4761325;30;20195;-83
2024/03/22 06:48:30;;;;;;;24.17;14.87;;;;;;;;;;4763638;30;20183;-83
2024/03/22 06:51:34;;;;;;;23.10;15.77;;;;;;;;;;4771798;30;20234;-83
2024/03/22 06:54:39;;;;;;;17.43;12.73;;;;;;;;;;4761577;30;20195;-83
2024/03/22 06:57:45;;;;;;;17.27;12.17;;;;;;;;;;4771512;30;20594;-84
2024/03/22 07:00:50;;;;;;;18.87;13.27;;;;;;;;;;4762184;30;20239;-83
2024/03/22 07:03:54;;;;;;;21.77;13.70;;;;;;;;;;4748966;30;20207;-84
2024/03/22 07:06:58;;;;;;;27.00;15.57;;;;;;;;;;4757556;30;20554;-84
2024/03/22 07:10:03;;;;;;;20.23;14.23;;;;;;;;;;4758285;30;20231;-84
2024/03/22 07:13:08;;;;;;;19.60;13.07;;;;;;;;;;4748040;30;20187;-83
2024/03/22 07:16:12;;;;;;;20.17;13.67;;;;;;;;;;4745820;30;20219;-83
2024/03/22 07:19:18;;;;;;;18.60;13.20;;;;;;;;;;4748546;30;20183;-85
2024/03/22 07:22:22;;;;;;;18.50;13.43;;;;;;;;;;4755629;30;20190;-86
2024/03/22 07:25:27;;;;;;;22.20;13.23;;;;;;;;;;4754828;30;20191;-85
2024/03/22 07:28:31;;;;;;;19.57;13.97;;;;;;;;;;4755967;30;20530;-86
2024/03/22 07:31:35;;;;;;;22.90;14.37;;;;;;;;;;4754822;30;20741;-86
2024/03/22 07:34:39;;;;;;;21.27;13.33;;;;;;;;;;4754298;30;20193;-86
2024/03/22 07:37:44;;;;;;;17.17;13.13;;;;;;;;;;4743980;30;20229;-88
2024/03/22 07:40:48;;;;;;;18.73;13.17;;;;;;;;;;4754185;30;20245;-87
2024/03/22 07:43:52;;;;;;;20.77;14.37;;;;;;;;;;4755526;30;20193;-86
2024/03/22 07:46:57;;;;;;;16.83;12.57;;;;;;;;;;4756147;30;20194;-87
2024/03/22 07:50:00;;;;;;;17.67;12.50;;;;;;;;;;4735665;30;20229;-86
2024/03/22 07:53:05;;;;;;;19.73;13.17;;;;;;;;;;4756031;30;20198;-86
2024/03/22 07:56:09;;;;;;;16.83;12.53;;;;;;;;;;4754096;30;20704;-86
2024/03/22 07:59:13;;;;;;;16.40;11.80;;;;;;;;;;4754143;30;20232;-85
2024/03/22 08:02:17;;;;;;;16.00;12.30;;;;;;;;;;4754036;30;20597;-86
2024/03/22 08:05:22;;;;;;;16.87;12.10;;;;;;;;;;4755096;30;20211;-85
2024/03/22 08:08:29;;;;;;;15.47;12.23;;;;;;;;;;4755541;30;20259;-86
2024/03/22 08:11:39;;;;;;;24.77;18.50;;;;;;;;;;4737072;30;20241;-86
2024/03/22 08:14:43;;;;;;;19.40;14.97;;;;;;;;;;4745202;30;20222;-86
2024/03/22 08:17:48;;;;;;;20.10;17.43;;;;;;;;;;4755418;30;20226;-85
2024/03/22 08:20:52;;;;;;;18.50;14.37;;;;;;;;;;4755045;30;20605;-85
2024/03/22 08:23:56;;;;;;;16.80;12.20;;;;;;;;;;4754337;30;20194;-84
2024/03/22 08:27:01;;;;;;;16.53;11.77;;;;;;;;;;4745007;30;20198;-85
2024/03/22 08:30:07;;;;;;;17.00;11.60;;;;;;;;;;4745324;30;20234;-86
2024/03/22 08:33:11;;;;;;;14.37;11.40;;;;;;;;;;4765290;30;20202;-84
2024/03/22 08:36:17;;;;;;;16.93;12.37;;;;;;;;;;4763925;30;20194;-84
2024/03/22 08:39:21;;;;;;;15.87;11.67;;;;;;;;;;4743921;30;20198;-85
2024/03/22 08:42:37;;;;;;;17.33;11.13;;;;;;;;;;4743888;30;20202;-84
2024/03/22 08:45:52;;;;;;;16.43;11.07;;;;;;;;;;4754182;30;20194;-84
2024/03/22 08:48:56;;;;;;;32.93;22.80;;;;;;;;;;4754864;30;20187;-84
2024/03/22 08:52:01;;;;;;;15.17;12.07;;;;;;;;;;4764630;30;20554;-85
2024/03/22 08:55:06;;;;;;;17.17;12.33;;;;;;;;;;4756767;30;20565;-85
2024/03/22 08:58:11;;;;;;;18.33;11.37;;;;;;;;;;4758245;30;20226;-85
2024/03/22 09:01:15;;;;;;;18.13;12.53;;;;;;;;;;4738489;30;20727;-85
2024/03/22 09:04:20;;;;;;;15.20;12.43;;;;;;;;;;4748316;30;20198;-85
2024/03/22 09:07:25;;;;;;;16.83;11.93;;;;;;;;;;4758358;30;20190;-85
2024/03/22 09:10:30;;;;;;;15.80;11.60;;;;;;;;;;4748099;30;20230;-84
2024/03/22 09:13:35;;;;;;;16.93;10.53;;;;;;;;;;4758700;30;20202;-85
2024/03/22 09:16:40;;;;;;;13.63;10.10;;;;;;;;;;4738339;30;20214;-85
2024/03/22 09:19:48;;;;;;;15.03;10.93;;;;;;;;;;4759336;30;20609;-85
2024/03/22 09:22:57;;;;;;;13.83;10.30;;;;;;;;;;4759614;30;20557;-84
2024/03/22 09:26:01;;;;;;;14.67;10.33;;;;;;;;;;4738795;30;20198;-85
2024/03/22 09:29:05;;;;;;;16.60;11.90;;;;;;;;;;4758410;30;20194;-84
2024/03/22 09:32:11;;;;;;;14.70;10.70;;;;;;;;;;4748934;30;20665;-84
2024/03/22 09:35:17;;;;;;;16.43;10.93;;;;;;;;;;4748258;30;20213;-84
2024/03/22 09:38:21;;;;;;;19.07;11.10;;;;;;;;;;4737359;30;20230;-84
2024/03/22 09:41:26;;;;;;;14.00;10.47;;;;;;;;;;4758662;30;20225;-84
2024/03/22 09:44:32;;;;;;;13.77;10.53;;;;;;;;;;4757797;30;20561;-84
2024/03/22 09:47:37;;;;;;;14.53;10.57;;;;;;;;;;4757875;30;20268;-84
2024/03/22 09:50:41;;;;;;;12.87;10.00;;;;;;;;;;4768169;30;20689;-84
2024/03/22 09:53:47;;;;;;;13.47;9.90;;;;;;;;;;4747836;30;20206;-84
2024/03/22 09:56:53;;;;;;;11.27;9.13;;;;;;;;;;4757480;30;20219;-84
2024/03/22 09:59:59;;;;;;;11.03;9.83;;;;;;;;;;4747519;30;20226;-84
2024/03/22 10:03:04;;;;;;;11.33;7.77;;;;;;;;;;4747301;30;20183;-85
2024/03/22 10:06:08;;;;;;;10.17;7.90;;;;;;;;;;4757159;30;20195;-84
2024/03/22 10:09:12;;;;;;;11.17;8.10;;;;;;;;;;4756935;30;20187;-85
2024/03/22 10:12:20;;;;;;;7.90;6.63;;;;;;;;;;4757496;30;20567;-85
2024/03/22 10:15:26;;;;;;;10.43;6.47;;;;;;;;;;4746539;30;20191;-84
2024/03/22 10:18:33;;;;;;;7.30;5.50;;;;;;;;;;4756239;30;20214;-84
2024/03/22 10:21:37;;;;;;;6.70;5.30;;;;;;;;;;4746123;30;20215;-85
2024/03/22 10:24:41;;;;;;;10.00;6.23;;;;;;;;;;4755838;30;20531;-84
2024/03/22 10:27:45;;;;;;;8.70;6.47;;;;;;;;;;4755994;30;20567;-85
2024/03/22 10:30:50;;;;;;;9.57;6.20;;;;;;;;;;4755434;30;20224;-85
2024/03/22 10:33:55;;;;;;;7.27;5.20;;;;;;;;;;4756061;30;20240;-85
2024/03/22 10:37:04;;;;;;;6.90;5.20;;;;;;;;;;4755637;30;20224;-85
2024/03/22 10:40:09;;;;;;;6.70;5.63;;;;;;;;;;4745015;30;20230;-84
2024/03/22 10:43:16;;;;;;;5.90;4.80;;;;;;;;;;4754596;30;20541;-85
2024/03/22 10:46:21;;;;;;;9.77;5.10;;;;;;;;;;4755303;30;20192;-84
2024/03/22 10:49:26;;;;;;;7.13;4.57;;;;;;;;;;4764913;30;20196;-84
2024/03/22 10:52:55;;;;;;;5.83;3.83;;;;;;;;;;4755423;30;20195;-84
2024/03/22 10:56:02;;;;;;;4.80;3.60;;;;;;;;;;4755323;30;20182;-85
2024/03/22 10:59:08;;;;;;;5.90;3.00;;;;;;;;;;4744906;30;20211;-84
2024/03/22 11:02:13;;;;;;;6.07;4.30;;;;;;;;;;4755185;30;20206;-85
2024/03/22 11:05:20;;;;;;;5.47;4.03;;;;;;;;;;4756317;30;20191;-84
2024/03/22 11:08:29;;;;;;;6.07;4.00;;;;;;;;;;4754864;30;20195;-84
2024/03/22 11:11:37;;;;;;;7.60;4.90;;;;;;;;;;4754867;30;20230;-84
2024/03/22 11:14:41;;;;;;;8.93;4.70;;;;;;;;;;4744834;30;20191;-85
2024/03/22 11:17:45;;;;;;;7.93;4.53;;;;;;;;;;4734468;30;20218;-85
2024/03/22 11:20:49;;;;;;;7.83;5.07;;;;;;;;;;4755207;30;20222;-85
2024/03/22 11:23:53;;;;;;;6.30;4.50;;;;;;;;;;4745011;30;20191;-85
2024/03/22 11:26:57;;;;;;;6.60;4.70;;;;;;;;;;4755852;30;20194;-84
2024/03/22 11:30:03;;;;;;;6.43;4.60;;;;;;;;;;4754887;30;20226;-84
2024/03/22 11:33:07;;;;;;;5.87;4.40;;;;;;;;;;4754545;30;20195;-84
2024/03/22 11:36:15;;;;;;;5.47;4.33;;;;;;;;;;4755534;30;20539;-85
2024/03/22 11:39:19;;;;;;;8.20;3.70;;;;;;;;;;4759561;30;20222;-82
2024/03/22 11:42:23;;;;;;;4.93;3.90;;;;;;;;;;4758864;30;20294;-82
2024/03/22 11:45:33;;;;;;;6.03;3.67;;;;;;;;;;4771640;30;20195;-84
2024/03/22 11:48:41;;;;;;;6.83;3.40;;;;;;;;;;4762729;30;20192;-84
2024/03/22 11:51:45;;;;;;;5.37;3.83;;;;;;;;;;4758203;30;20199;-84
2024/03/22 11:54:53;;;;;;;5.40;3.70;;;;;;;;;;4770847;30;20191;-86
2024/03/22 11:57:58;;;;;;;6.00;3.97;;;;;;;;;;4763390;30;20211;-84
2024/03/22 12:01:02;;;;;;;6.77;4.00;;;;;;;;;;4758146;30;20234;-83
2024/03/22 12:04:10;;;;;;;5.27;3.90;;;;;;;;;;4766978;30;20195;-83
2024/03/22 12:07:20;;;;;;;5.87;4.33;;;;;;;;;;4768062;30;20199;-83
2024/03/22 12:11:01;;;;;;;5.00;3.27;;;;;;;;;;4757671;30;20708;-84
2024/03/22 12:14:55;;;;;;;6.03;3.97;;;;;;;;;;4769346;30;20198;-83
2024/03/22 12:18:06;;;;;;;6.50;4.80;;;;;;;;;;4745684;30;20224;-84
2024/03/22 12:21:10;;;;;;;7.43;5.03;;;;;;;;;;4757479;30;20229;-84
2024/03/22 12:24:14;;;;;;;6.67;4.57;;;;;;;;;;4766854;30;20187;-84
2024/03/22 12:27:18;;;;;;;6.70;5.10;;;;;;;;;;4757111;30;20654;-84
2024/03/22 12:30:23;;;;;;;6.27;4.70;;;;;;;;;;4760088;30;20220;-84
2024/03/22 12:33:27;;;;;;;7.03;5.60;;;;;;;;;;4759901;30;20201;-84
2024/03/22 12:36:31;;;;;;;8.80;5.60;;;;;;;;;;4769563;30;20202;-84
2024/03/22 12:39:37;;;;;;;8.43;6.10;;;;;;;;;;4759532;30;20246;-84
2024/03/22 12:42:41;;;;;;;9.80;5.57;;;;;;;;;;4759317;30;20198;-84
2024/03/22 12:45:45;;;;;;;7.13;4.87;;;;;;;;;;4757313;30;20197;-83
2024/03/22 12:48:49;;;;;;;7.07;5.40;;;;;;;;;;4757898;30;20188;-85
2024/03/22 12:51:56;;;;;;;6.57;5.10;;;;;;;;;;4758508;30;20192;-84
2024/03/22 12:55:00;;;;;;;7.53;5.33;;;;;;;;;;4758581;30;20193;-84
2024/03/22 12:58:04;;;;;;;8.97;5.70;;;;;;;;;;4758373;30;20216;-84
2024/03/22 13:01:10;;;;;;;6.87;5.20;;;;;;;;;;4757586;30;20231;-83
2024/03/22 13:04:14;;;;;;;8.00;5.50;;;;;;;;;;4759300;30;20193;-84
2024/03/22 13:07:18;;;;;;;7.57;5.43;;;;;;;;;;4758558;30;20195;-84
2024/03/22 13:10:23;;;;;;;7.53;5.23;;;;;;;;;;4768170;30;20223;-84
2024/03/22 13:13:28;;;;;;;7.10;5.77;;;;;;;;;;4758592;30;20199;-85
2024/03/22 13:16:32;;;;;;;6.97;5.13;;;;;;;;;;4759965;30;20532;-85
2024/03/22 13:19:36;;;;;;;7.33;5.23;;;;;;;;;;4758750;30;20244;-84
2024/03/22 13:22:40;;;;;;;10.50;5.87;;;;;;;;;;4746827;30;20188;-84
2024/03/22 13:25:44;;;;;;;9.23;4.93;;;;;;;;;;4758183;30;20675;-85
2024/03/22 13:28:48;;;;;;;8.77;5.27;;;;;;;;;;4758473;30;20187;-84
2024/03/22 13:31:53;;;;;;;8.73;5.13;;;;;;;;;;4758593;30;20198;-83
2024/03/22 13:34:57;;;;;;;8.00;5.40;;;;;;;;;;4757821;30;20198;-84
2024/03/22 13:38:01;;;;;;;7.17;5.23;;;;;;;;;;4757693;30;20230;-85
2024/03/22 13:41:06;;;;;;;5.50;4.87;;;;;;;;;;4768360;30;20300;-84
2024/03/22 13:44:10;;;;;;;6.30;4.37;;;;;;;;;;4758984;30;20190;-84
2024/03/22 13:47:31;;;;;;;8.90;5.33;;;;;;;;;;4762100;30;20191;-83
2024/03/22 13:50:42;;;;;;;7.27;4.00;;;;;;;;;;4779047;30;20230;-83
2024/03/22 13:53:47;;;;;;;7.50;4.83;;;;;;;;;;4759213;30;20218;-83
2024/03/22 13:56:51;;;;;;;6.23;4.40;;;;;;;;;;4779104;30;20196;-84
2024/03/22 13:59:55;;;;;;;9.03;4.10;;;;;;;;;;4780021;30;20234;-84
2024/03/22 14:03:00;;;;;;;8.00;4.70;;;;;;;;;;4770692;30;20176;-84
2024/03/22 14:06:04;;;;;;;7.10;4.60;;;;;;;;;;4780439;30;20197;-84
2024/03/22 14:09:10;;;;;;;8.17;4.30;;;;;;;;;;4771008;30;20183;-84
2024/03/22 14:12:14;;;;;;;7.60;4.40;;;;;;;;;;4750044;30;20187;-84
2024/03/22 14:15:19;;;;;;;8.17;4.27;;;;;;;;;;4770457;30;20198;-84
2024/03/22 14:18:23;;;;;;;7.40;4.00;;;;;;;;;;4770237;30;20223;-84
2024/03/22 14:21:28;;;;;;;5.93;4.53;;;;;;;;;;4759899;30;20226;-84
2024/03/22 14:24:32;;;;;;;8.47;4.27;;;;;;;;;;4757784;30;20185;-81
2024/03/22 14:27:37;;;;;;;8.50;4.67;;;;;;;;;;4774807;30;20211;-82
2024/03/22 14:30:41;;;;;;;7.47;4.53;;;;;;;;;;4780257;30;20233;-81
2024/03/22 14:33:46;;;;;;;7.07;4.70;;;;;;;;;;4779046;30;20195;-81
2024/03/22 14:36:51;;;;;;;7.57;4.67;;;;;;;;;;4779575;30;20196;-81
2024/03/22 14:39:55;;;;;;;12.47;5.20;;;;;;;;;;4777871;30;20236;-81
2024/03/22 14:42:59;;;;;;;9.83;4.80;;;;;;;;;;4768193;30;20193;-80
2024/03/22 14:46:04;;;;;;;5.43;4.63;;;;;;;;;;4770444;30;20191;-82
2024/03/22 14:49:09;;;;;;;8.33;5.47;;;;;;;;;;4774674;30;20186;-83
2024/03/22 14:52:14;;;;;;;7.13;4.37;;;;;;;;;;4772510;30;20534;-83
2024/03/22 14:55:20;;;;;;;6.80;3.90;;;;;;;;;;4762359;30;20543;-84
2024/03/22 14:58:26;;;;;;;6.33;4.53;;;;;;;;;;4771800;30;20226;-87
2024/03/22 15:01:35;;;;;;;8.67;4.43;;;;;;;;;;4777412;30;20238;-86
2024/03/22 15:04:39;;;;;;;7.90;4.33;;;;;;;;;;4755226;30;20545;-86
2024/03/22 15:07:44;;;;;;;5.77;4.30;;;;;;;;;;4773748;30;20190;-86
2024/03/22 15:10:48;;;;;;;6.53;3.27;;;;;;;;;;4761724;30;20223;-86
2024/03/22 15:13:53;;;;;;;6.07;4.20;;;;;;;;;;4770732;30;20198;-86
2024/03/22 15:16:59;;;;;;;8.00;4.30;;;;;;;;;;4770893;30;20186;-86
2024/03/22 15:20:08;;;;;;;5.87;3.67;;;;;;;;;;4760621;30;20230;-86
2024/03/22 15:23:16;;;;;;;9.83;3.63;;;;;;;;;;4761567;30;20191;-85
2024/03/22 15:26:25;;;;;;;4.80;3.30;;;;;;;;;;4773176;30;20190;-85
2024/03/22 15:29:31;;;;;;;9.33;4.20;;;;;;;;;;4773673;30;20184;-85
2024/03/22 15:32:36;;;;;;;5.37;3.87;;;;;;;;;;4772096;30;20190;-84
2024/03/22 15:35:49;;;;;;;4.07;3.17;;;;;;;;;;4772021;30;20538;-85
2024/03/22 15:39:13;;;;;;;4.10;3.17;;;;;;;;;;4772741;30;20226;-84
2024/03/22 15:43:11;;;;;;;6.23;3.07;;;;;;;;;;4774805;30;20182;-84
2024/03/22 15:50:48;;;;;;;3.37;2.80;;;;;;;;;;4773792;30;20226;-84
2024/03/22 15:54:00;;;;;;;5.30;3.00;;;;;;;;;;4772718;30;20653;-84
2024/03/22 15:57:11;;;;;;;4.57;3.17;;;;;;;;;;4762306;30;20194;-84
2024/03/22 16:00:25;;;;;;;5.53;3.07;;;;;;;;;;4773195;30;20238;-84
2024/03/22 16:03:58;;;;;;;5.03;3.13;;;;;;;;;;4777407;30;20186;-84
2024/03/22 16:08:29;;;;;;;5.27;2.47;;;;;;;;;;4799213;30;20213;-84
2024/03/22 16:15:34;;;;;;;;;;;;;;;;;;;;;
2024/03/22 16:19:25;;;;;;;3.63;2.13;;;;;;;;;;4819498;29;20703;-85
2024/03/22 16:22:29;;;;;;;4.33;3.00;;;;;;;;;;4808622;29;20181;-85
2024/03/22 16:25:38;;;;;;;3.30;2.20;;;;;;;;;;4818504;29;20512;-84
2024/03/22 16:28:50;;;;;;;2.70;2.23;;;;;;;;;;4798151;29;20185;-84
2024/03/22 16:31:54;;;;;;;4.73;2.63;;;;;;;;;;4818602;29;20185;-84
2024/03/22 16:35:08;;;;;;;3.13;1.63;;;;;;;;;;4817874;29;20185;-85
2024/03/22 16:38:16;;;;;;;5.47;2.37;;;;;;;;;;4817284;29;20189;-84
2024/03/22 16:41:20;;;;;;;2.53;1.90;;;;;;;;;;4819072;29;20220;-84
2024/03/22 16:44:24;;;;;;;3.53;1.80;;;;;;;;;;4807325;29;20185;-85
2024/03/22 16:47:29;;;;;;;7.23;2.47;;;;;;;;;;4817919;29;20259;-84
2024/03/22 16:50:33;;;;;;;3.50;1.70;;;;;;;;;;4817637;29;20228;-84
2024/03/22 16:53:37;;;;;;;4.23;2.10;;;;;;;;;;4817671;29;20189;-84
2024/03/22 16:56:42;;;;;;;3.67;2.00;;;;;;;;;;4817711;29;20189;-85
2024/03/22 16:59:46;;;;;;;2.97;1.77;;;;;;;;;;4815534;29;20579;-85
2024/03/22 17:02:50;;;;;;;2.40;1.93;;;;;;;;;;4804025;29;20185;-85
2024/03/22 17:05:54;;;;;;;3.13;2.10;;;;;;;;;;4814389;29;20185;-85
2024/03/22 17:08:59;;;;;;;7.00;2.10;;;;;;;;;;4815257;29;20181;-85
2024/03/22 17:12:05;;;;;;;3.93;2.27;;;;;;;;;;4814053;29;20212;-85
2024/03/22 17:15:09;;;;;;;3.63;1.90;;;;;;;;;;4814260;29;20189;-85
2024/03/22 17:18:14;;;;;;;4.13;2.10;;;;;;;;;;4814055;29;20532;-83
2024/03/22 17:21:22;;;;;;;29.40;3.90;;;;;;;;;;4813801;29;20232;-85
2024/03/22 17:24:27;;;;;;;6.27;2.50;;;;;;;;;;4802393;29;20189;-83
2024/03/22 17:27:31;;;;;;;2.80;2.20;;;;;;;;;;4813370;29;20255;-84
2024/03/22 17:30:35;;;;;;;3.87;2.20;;;;;;;;;;4814254;29;20220;-83
2024/03/22 17:33:40;;;;;;;5.47;1.87;;;;;;;;;;4814019;29;20541;-84
2024/03/22 17:36:46;;;;;;;6.53;2.20;;;;;;;;;;4813965;29;20185;-83
2024/03/22 17:39:49;;;;;;;2.43;2.23;;;;;;;;;;4812626;29;20699;-84
2024/03/22 17:42:53;;;;;;;3.63;2.17;;;;;;;;;;4802804;29;20185;-85
2024/03/22 17:45:58;;;;;;;2.10;1.80;;;;;;;;;;4813556;29;20185;-85
2024/03/22 17:49:03;;;;;;;3.07;1.73;;;;;;;;;;4812962;29;20197;-84
2024/03/22 17:52:07;;;;;;;3.87;2.10;;;;;;;;;;4812844;29;20189;-84
2024/03/22 17:55:11;;;;;;;2.90;2.10;;;;;;;;;;4812190;29;20188;-84
2024/03/22 17:58:15;;;;;;;3.50;2.10;;;;;;;;;;4812922;29;20189;-83
2024/03/22 18:01:20;;;;;;;5.50;2.30;;;;;;;;;;4812075;29;20228;-83
2024/03/22 18:04:24;;;;;;;5.33;1.93;;;;;;;;;;4812799;29;20540;-84
2024/03/22 18:07:28;;;;;;;3.73;1.90;;;;;;;;;;4801015;29;20185;-84
2024/03/22 18:10:32;;;;;;;3.77;2.10;;;;;;;;;;4811569;29;20216;-84
2024/03/22 18:13:39;;;;;;;3.90;1.90;;;;;;;;;;4811665;29;20185;-84
2024/03/22 18:16:43;;;;;;;3.53;2.00;;;;;;;;;;4811751;29;20185;-83
2024/03/22 18:19:47;;;;;;;2.40;1.93;;;;;;;;;;4811588;29;20232;-83
2024/03/22 18:22:51;;;;;;;4.77;1.83;;;;;;;;;;4812325;29;20192;-84
2024/03/22 18:25:56;;;;;;;3.23;2.00;;;;;;;;;;4821766;29;20185;-84
2024/03/22 18:29:00;;;;;;;3.87;2.10;;;;;;;;;;4812500;29;20181;-83
2024/03/22 18:32:05;;;;;;;2.93;1.87;;;;;;;;;;4811096;29;20189;-83